Time;durP1;ratioP1;P1;durP2;ratioP2;P2;SDS_P1;SDS_P2;PMS_P1;PMS_P2;Temp;Humidity;BMP_temperature;BMP_pressure;BME280_temperature;BME280_humidity;BME280_pressure;Samples;Min_cycle;Max_cycle;Signal;HPM_P1;HPM_P2
2021/07/23 00:00:00;;;;;;;19.93;11.23;;;;;;;16.59;72.08;96809.47;3537665;40;20796;-72
2021/07/23 00:02:27;;;;;;;23.70;11.20;;;;;;;16.52;72.47;96808.34;3539505;40;20793;-71
2021/07/23 00:04:55;;;;;;;19.73;11.60;;;;;;;16.37;72.92;96810.56;3540770;40;20848;-72
2021/07/23 00:07:23;;;;;;;21.67;12.67;;;;;;;16.48;72.85;96805.13;3537394;40;20445;-72
2021/07/23 00:09:52;;;;;;;17.93;10.70;;;;;;;16.46;72.38;96804.44;3539483;40;20591;-72
2021/07/23 00:12:20;;;;;;;30.63;11.33;;;;;;;16.38;73.07;96805.13;3539142;40;20798;-72
2021/07/23 00:14:48;;;;;;;18.00;11.43;;;;;;;16.39;73.26;96804.16;3538562;40;20898;-72
2021/07/23 00:17:16;;;;;;;20.20;10.80;;;;;;;16.21;73.84;96803.16;3539315;40;20468;-71
2021/07/23 00:19:44;;;;;;;19.07;11.30;;;;;;;16.16;73.36;96798.25;3539778;40;20947;-72
2021/07/23 00:22:12;;;;;;;17.03;10.10;;;;;;;16.26;73.25;96798.28;3536935;40;20758;-72
2021/07/23 00:24:40;;;;;;;21.23;11.07;;;;;;;16.34;73.34;96802.88;3539510;40;21008;-71
2021/07/23 00:27:09;;;;;;;23.53;11.50;;;;;;;16.27;73.36;96801.75;3538231;40;20437;-71
2021/07/23 00:29:37;;;;;;;18.17;11.33;;;;;;;16.08;73.54;96799.91;3539265;40;20915;-72
2021/07/23 00:32:06;;;;;;;19.27;10.43;;;;;;;15.94;74.25;96801.97;3540773;40;20740;-71
2021/07/23 00:34:34;;;;;;;20.20;10.70;;;;;;;16.00;74.13;96798.78;3537025;40;20888;-71
2021/07/23 00:37:02;;;;;;;19.33;11.30;;;;;;;15.99;74.00;96786.56;3538474;40;21046;-72
2021/07/23 00:39:30;;;;;;;19.23;10.30;;;;;;;16.07;74.17;96787.66;3537935;40;20448;-72
2021/07/23 00:41:57;;;;;;;17.73;10.40;;;;;;;16.00;73.94;96790.84;3538232;40;20442;-73
2021/07/23 00:44:28;;;;;;;19.47;11.27;;;;;;;15.94;74.12;96794.03;3539799;40;20581;-72
2021/07/23 00:46:56;;;;;;;17.10;10.30;;;;;;;15.94;74.47;96793.22;3539315;40;20905;-71
2021/07/23 00:49:24;;;;;;;20.93;11.10;;;;;;;16.00;74.00;96790.03;3538178;40;20435;-72
2021/07/23 00:51:52;;;;;;;22.90;11.40;;;;;;;15.85;74.47;96775.53;3538852;40;20433;-71
2021/07/23 00:54:20;;;;;;;19.70;11.93;;;;;;;15.93;74.51;96787.06;3540355;40;20516;-72
2021/07/23 00:56:48;;;;;;;18.83;10.03;;;;;;;15.93;73.97;96780.97;3539223;40;20565;-71
2021/07/23 00:59:19;;;;;;;22.63;11.00;;;;;;;15.92;74.32;96782.78;3542521;40;20550;-72
2021/07/23 01:01:49;;;;;;;17.57;10.03;;;;;;;15.86;74.22;96779.81;3549630;40;20864;-71
2021/07/23 01:04:19;;;;;;;22.07;10.40;;;;;;;15.78;74.66;96776.06;3539045;40;20813;-70
2021/07/23 01:06:47;;;;;;;23.07;10.70;;;;;;;15.74;74.53;96777.28;3545256;40;20535;-72
2021/07/23 01:09:16;;;;;;;23.63;11.13;;;;;;;15.70;74.80;96775.88;3539490;40;20516;-71
2021/07/23 01:11:44;;;;;;;23.07;10.83;;;;;;;15.71;75.08;96772.25;3536363;40;20964;-70
2021/07/23 01:14:12;;;;;;;16.77;9.53;;;;;;;15.80;74.20;96776.75;3536955;40;20435;-72
2021/07/23 01:16:40;;;;;;;16.70;9.90;;;;;;;15.70;74.50;96769.72;3538646;40;20701;-73
2021/07/23 01:19:12;;;;;;;16.90;10.00;;;;;;;15.72;74.50;96773.94;3540458;40;20429;-72
2021/07/23 01:21:42;;;;;;;16.77;10.73;;;;;;;15.77;74.02;96770.91;3541262;40;20778;-71
2021/07/23 01:24:13;;;;;;;20.90;11.20;;;;;;;15.77;74.17;96769.09;3538175;40;20762;-73
2021/07/23 01:26:42;;;;;;;17.70;10.07;;;;;;;15.67;74.36;96767.38;3538113;40;20463;-72
2021/07/23 01:29:10;;;;;;;21.57;9.57;;;;;;;15.61;74.45;96768.72;3541041;40;20519;-73
2021/07/23 01:31:38;;;;;;;18.33;9.70;;;;;;;15.22;75.22;96773.81;3550998;40;20501;-72
2021/07/23 01:34:06;;;;;;;18.60;10.03;;;;;;;15.25;75.62;96763.00;3549035;40;20526;-72
2021/07/23 01:36:34;;;;;;;19.70;10.80;;;;;;;15.21;75.63;96766.84;3550174;40;20483;-72
2021/07/23 01:39:03;;;;;;;18.60;10.67;;;;;;;15.17;75.93;96770.72;3549169;40;20464;-71
2021/07/23 01:41:33;;;;;;;20.33;9.90;;;;;;;15.29;75.83;96767.06;3548407;40;20756;-72
2021/07/23 01:44:01;;;;;;;16.70;10.10;;;;;;;15.24;75.59;96771.88;3550919;40;20510;-70
2021/07/23 01:46:29;;;;;;;18.83;9.50;;;;;;;15.31;75.44;96765.13;3552046;40;20903;-70
2021/07/23 01:48:57;;;;;;;20.43;10.33;;;;;;;15.35;75.21;96769.16;3547869;40;20923;-72
2021/07/23 01:51:26;;;;;;;16.73;9.50;;;;;;;15.16;75.90;96767.25;3547939;40;20914;-72
2021/07/23 01:53:54;;;;;;;16.87;10.03;;;;;;;15.20;76.27;96757.28;3549051;40;20469;-71
2021/07/23 01:56:22;;;;;;;19.27;10.20;;;;;;;15.20;75.95;96760.75;3550716;40;20735;-71
2021/07/23 01:58:51;;;;;;;17.50;10.40;;;;;;;15.12;75.56;96760.56;3547610;40;20517;-71
2021/07/23 02:01:19;;;;;;;18.00;10.40;;;;;;;14.99;75.91;96759.91;3548053;40;20460;-70
2021/07/23 02:03:47;;;;;;;22.83;10.70;;;;;;;15.01;76.33;96760.63;3547784;40;20455;-70
2021/07/23 02:06:15;;;;;;;16.30;10.33;;;;;;;15.03;76.22;96759.56;3548433;40;20483;-70
2021/07/23 02:08:43;;;;;;;22.30;10.40;;;;;;;15.02;76.23;96759.69;3551822;40;20460;-71
2021/07/23 02:11:11;;;;;;;18.27;9.40;;;;;;;15.11;75.79;96745.72;3549372;40;20463;-71
2021/07/23 02:13:39;;;;;;;20.33;10.90;;;;;;;15.10;76.10;96748.47;3546325;40;20444;-72
2021/07/23 02:16:08;;;;;;;18.33;9.53;;;;;;;15.03;76.47;96750.78;3546841;40;20856;-71
2021/07/23 02:18:36;;;;;;;18.20;10.40;;;;;;;15.05;76.08;96742.75;3550429;40;20590;-71
2021/07/23 02:21:07;;;;;;;24.77;11.20;;;;;;;14.54;77.37;96745.13;3549986;40;20693;-71
2021/07/23 02:23:36;;;;;;;23.00;10.70;;;;;;;14.72;77.29;96747.25;3550494;40;20482;-72
2021/07/23 02:26:03;;;;;;;17.33;8.83;;;;;;;14.85;77.06;96737.34;3548555;40;20832;-72
2021/07/23 02:28:31;;;;;;;21.90;10.70;;;;;;;14.92;76.43;96745.59;3548630;40;20544;-71
2021/07/23 02:30:59;;;;;;;21.80;10.53;;;;;;;14.86;76.68;96740.81;3548305;40;20533;-71
2021/07/23 02:33:28;;;;;;;15.13;9.30;;;;;;;14.82;76.62;96740.25;3549752;40;20689;-72
2021/07/23 02:35:56;;;;;;;15.73;9.47;;;;;;;14.89;76.65;96744.03;3548899;40;20535;-73
2021/07/23 02:38:24;;;;;;;17.63;10.20;;;;;;;14.88;76.72;96733.63;3548247;40;20452;-74
2021/07/23 02:40:54;;;;;;;19.00;11.10;;;;;;;14.88;77.13;96730.97;3548634;40;20858;-74
2021/07/23 02:43:23;;;;;;;19.60;9.87;;;;;;;14.78;76.61;96721.22;3550196;40;20941;-72
2021/07/23 02:45:51;;;;;;;19.80;10.63;;;;;;;14.71;77.23;96735.88;3549080;40;20750;-73
2021/07/23 02:48:19;;;;;;;18.40;10.10;;;;;;;14.61;77.50;96734.97;3547453;40;20435;-73
2021/07/23 02:50:48;;;;;;;17.03;10.57;;;;;;;14.61;77.33;96734.97;3546783;40;20918;-73
2021/07/23 02:53:17;;;;;;;18.70;10.47;;;;;;;14.56;77.30;96732.72;3549508;40;20513;-73
2021/07/23 02:55:45;;;;;;;16.20;9.00;;;;;;;14.49;76.93;96714.88;3549048;40;21201;-73
2021/07/23 02:58:14;;;;;;;13.90;9.07;;;;;;;14.67;76.97;96733.63;3549781;40;20473;-73
2021/07/23 03:00:42;;;;;;;17.80;10.50;;;;;;;14.60;77.04;96731.50;3548680;40;20539;-73
2021/07/23 03:03:10;;;;;;;16.80;9.73;;;;;;;14.54;77.36;96717.94;3548483;40;20743;-74
2021/07/23 03:05:38;;;;;;;18.47;11.23;;;;;;;14.34;78.45;96724.88;3545559;40;20823;-74
2021/07/23 03:08:09;;;;;;;18.60;10.33;;;;;;;14.46;78.06;96725.66;3548071;40;20548;-73
2021/07/23 03:10:37;;;;;;;18.90;10.90;;;;;;;14.41;78.04;96723.41;3548820;40;20553;-73
2021/07/23 03:13:05;;;;;;;19.77;10.23;;;;;;;14.46;78.00;96710.69;3547373;40;20770;-73
2021/07/23 03:15:33;;;;;;;18.97;10.07;;;;;;;14.49;77.79;96709.63;3545656;40;20578;-74
2021/07/23 03:18:01;;;;;;;22.23;9.80;;;;;;;14.48;78.17;96710.56;3546356;40;20685;-73
2021/07/23 03:20:29;;;;;;;19.03;10.47;;;;;;;14.51;78.04;96712.94;3547574;40;20697;-74
2021/07/23 03:22:56;;;;;;;17.93;10.37;;;;;;;14.49;77.69;96710.44;3549460;40;20536;-73
2021/07/23 03:25:26;;;;;;;19.50;11.10;;;;;;;14.46;78.24;96709.84;3546934;40;20866;-74
2021/07/23 03:27:53;;;;;;;18.53;9.70;;;;;;;14.45;78.02;96711.66;3545639;40;20545;-75
2021/07/23 03:30:22;;;;;;;14.87;10.07;;;;;;;14.40;77.74;96704.13;3545695;40;20711;-74
2021/07/23 03:32:49;;;;;;;17.90;9.80;;;;;;;14.40;77.85;96705.91;3547119;40;20678;-74
2021/07/23 03:35:17;;;;;;;17.73;10.10;;;;;;;14.36;78.03;96697.44;3548555;40;20544;-75
2021/07/23 03:37:45;;;;;;;17.63;9.10;;;;;;;14.37;78.04;96700.94;3550942;40;20432;-75
2021/07/23 03:40:13;;;;;;;19.27;9.50;;;;;;;14.14;79.01;96710.69;3545721;40;20926;-73
2021/07/23 03:42:42;;;;;;;21.50;10.60;;;;;;;14.16;79.05;96708.78;3547366;40;20848;-72
2021/07/23 03:45:11;;;;;;;19.77;9.90;;;;;;;14.16;79.01;96708.78;3546832;40;20573;-72
2021/07/23 03:47:39;;;;;;;18.07;8.50;;;;;;;14.15;78.91;96707.94;3548555;40;20440;-71
2021/07/23 03:50:08;;;;;;;24.13;10.37;;;;;;;14.18;78.40;96712.13;3544943;40;20541;-72
2021/07/23 03:52:36;;;;;;;21.63;10.60;;;;;;;14.18;77.92;96712.13;3546497;40;20759;-74
2021/07/23 03:55:04;;;;;;;15.50;9.50;;;;;;;14.19;78.24;96714.63;3546272;40;20905;-73
2021/07/23 03:57:32;;;;;;;18.30;9.00;;;;;;;14.07;77.36;96710.34;3545309;40;20439;-72
2021/07/23 04:00:02;;;;;;;23.93;9.27;;;;;;;13.58;79.21;96720.41;3548218;40;20515;-74
2021/07/23 04:02:29;;;;;;;21.83;9.43;;;;;;;13.85;78.24;96716.50;3547454;40;20692;-75
2021/07/23 04:04:58;;;;;;;17.00;8.83;;;;;;;13.98;78.11;96714.56;3546084;40;20502;-72
2021/07/23 04:07:26;;;;;;;23.27;9.77;;;;;;;14.04;77.65;96715.88;3547997;40;20858;-73
2021/07/23 04:09:54;;;;;;;19.87;9.40;;;;;;;14.06;77.59;96715.75;3548062;40;20786;-73
2021/07/23 04:12:21;;;;;;;15.53;9.50;;;;;;;14.14;78.07;96721.22;3547764;40;21208;-72
2021/07/23 04:14:49;;;;;;;20.13;10.30;;;;;;;14.10;78.21;96728.53;3547453;40;20475;-74
2021/07/23 04:17:19;;;;;;;19.60;11.07;;;;;;;14.15;78.30;96720.25;3546501;40;20477;-75
2021/07/23 04:19:48;;;;;;;21.10;10.37;;;;;;;13.94;79.25;96715.78;3549137;40;20472;-75
2021/07/23 04:22:17;;;;;;;21.70;9.67;;;;;;;13.63;80.20;96717.41;3547906;40;20438;-75
2021/07/23 04:24:45;;;;;;;20.07;9.67;;;;;;;14.11;79.27;96721.47;3548754;40;20850;-75
2021/07/23 04:27:13;;;;;;;16.67;10.23;;;;;;;14.42;77.70;96714.53;3546265;40;20470;-74
2021/07/23 04:29:47;;;;;;;21.93;11.00;;;;;;;14.57;77.40;96712.47;3543938;40;20466;-75
2021/07/23 04:32:15;;;;;;;16.87;9.43;;;;;;;14.75;76.86;96718.84;3547395;40;20792;-76
2021/07/23 04:34:45;;;;;;;15.60;9.70;;;;;;;14.83;76.33;96719.03;3545706;40;20756;-75
2021/07/23 04:37:13;;;;;;;15.37;9.47;;;;;;;14.83;76.93;96718.19;3547625;40;21012;-76
2021/07/23 04:39:42;;;;;;;20.37;10.50;;;;;;;14.92;76.26;96724.50;3548744;40;20720;-76
2021/07/23 04:42:10;;;;;;;18.57;10.50;;;;;;;14.49;78.70;96728.06;3546936;40;20670;-75
2021/07/23 04:44:38;;;;;;;15.43;10.07;;;;;;;14.42;79.28;96725.91;3547410;40;20700;-75
2021/07/23 04:47:06;;;;;;;20.73;9.50;;;;;;;14.37;79.96;96730.72;3548674;40;20860;-75
2021/07/23 04:49:34;;;;;;;18.10;10.57;;;;;;;14.15;81.51;96728.16;3549987;40;20455;-74
2021/07/23 04:52:04;;;;;;;24.43;10.87;;;;;;;14.37;79.13;96736.00;3549475;40;20653;-74
2021/07/23 04:54:32;;;;;;;27.50;9.80;;;;;;;14.59;78.28;96729.00;3546461;40;20867;-75
2021/07/23 04:56:59;;;;;;;19.97;9.97;;;;;;;14.46;79.15;96725.66;3548332;40;20900;-75
2021/07/23 04:59:27;;;;;;;19.20;10.13;;;;;;;14.75;77.16;96732.00;3547295;40;20733;-74
2021/07/23 05:01:55;;;;;;;19.23;9.47;;;;;;;14.47;75.94;96733.44;3550568;40;20524;-74
2021/07/23 05:04:24;;;;;;;18.43;9.23;;;;;;;13.51;79.36;96732.34;3549421;40;20817;-76
2021/07/23 05:06:51;;;;;;;32.23;8.80;;;;;;;13.81;78.89;96736.16;3547827;40;20700;-74
2021/07/23 05:09:21;;;;;;;24.13;10.60;;;;;;;13.65;79.84;96726.84;3549530;40;20459;-73
2021/07/23 05:11:49;;;;;;;18.23;10.07;;;;;;;14.01;78.90;96732.78;3550034;40;20462;-74
2021/07/23 05:14:17;;;;;;;19.77;10.47;;;;;;;14.47;76.92;96738.72;3550295;40;20494;-72
2021/07/23 05:16:46;;;;;;;23.30;11.73;;;;;;;14.54;77.18;96723.22;3547117;40;20435;-72
2021/07/23 05:19:15;;;;;;;21.87;11.10;;;;;;;14.32;78.26;96732.91;3550305;40;20950;-72
2021/07/23 05:21:45;;;;;;;19.40;11.37;;;;;;;14.61;76.56;96719.16;3545469;40;20845;-74
2021/07/23 05:24:14;;;;;;;18.83;10.60;;;;;;;14.54;77.79;96721.41;3548010;40;20868;-73
2021/07/23 05:26:43;;;;;;;20.60;11.53;;;;;;;14.90;75.88;96719.34;3550169;40;20553;-72
2021/07/23 05:29:11;;;;;;;15.90;10.07;;;;;;;15.39;74.41;96719.63;3548715;40;20439;-72
2021/07/23 05:31:40;;;;;;;20.00;10.60;;;;;;;15.56;73.45;96723.41;3537049;40;20566;-72
2021/07/23 05:34:08;;;;;;;20.00;10.67;;;;;;;15.84;72.79;96727.16;3536449;40;20846;-72
2021/07/23 05:36:36;;;;;;;21.53;11.17;;;;;;;15.86;73.00;96717.31;3538984;40;20852;-72
2021/07/23 05:39:04;;;;;;;16.63;9.87;;;;;;;15.71;73.53;96726.53;3538854;40;20825;-72
2021/07/23 05:41:32;;;;;;;26.97;10.37;;;;;;;15.74;73.98;96726.28;3538531;40;20457;-72
2021/07/23 05:44:02;;;;;;;19.70;9.43;;;;;;;16.04;72.81;96725.41;3536036;40;20475;-72
2021/07/23 05:46:30;;;;;;;27.17;10.53;;;;;;;16.23;71.19;96716.66;3546955;40;20918;-71
2021/07/23 05:48:58;;;;;;;19.20;10.53;;;;;;;16.17;72.40;96720.69;3549294;40;20440;-73
2021/07/23 05:51:25;;;;;;;16.60;10.90;;;;;;;16.58;70.84;96721.41;3539203;40;20490;-72
2021/07/23 05:53:53;;;;;;;21.93;10.70;;;;;;;16.71;70.56;96721.09;3537130;40;20436;-73
2021/07/23 05:56:21;;;;;;;16.07;9.93;;;;;;;16.81;69.80;96721.09;3548214;40;20863;-72
2021/07/23 05:58:50;;;;;;;17.43;11.20;;;;;;;16.93;69.31;96717.34;3549202;40;20722;-73
2021/07/23 06:01:19;;;;;;;21.40;11.10;;;;;;;17.06;68.59;96719.69;3545905;40;20736;-74
2021/07/23 06:03:47;;;;;;;22.83;11.40;;;;;;;16.60;69.86;96715.94;3543802;40;20452;-73
2021/07/23 06:06:16;;;;;;;28.60;14.00;;;;;;;16.74;69.99;96726.13;3537824;40;20519;-73
2021/07/23 06:09:04;;;;;;;21.90;12.33;;;;;;;17.07;69.21;96724.03;3537415;40;20530;-72
2021/07/23 06:11:33;;;;;;;17.50;10.03;;;;;;;17.41;68.72;96712.91;3535838;40;20486;-72
2021/07/23 06:14:02;;;;;;;21.90;10.10;;;;;;;17.26;68.79;96723.09;3538191;40;20449;-72
2021/07/23 06:16:31;;;;;;;24.40;10.80;;;;;;;17.46;68.16;96723.88;3539166;40;20881;-72
2021/07/23 06:18:59;;;;;;;20.97;10.60;;;;;;;17.95;67.28;96726.31;3540965;40;20907;-74
2021/07/23 06:21:28;;;;;;;17.93;10.67;;;;;;;18.29;65.44;96726.53;3546814;40;20558;-72
2021/07/23 06:23:57;;;;;;;21.33;11.90;;;;;;;17.90;67.20;96718.00;3547817;40;20847;-72
2021/07/23 06:26:25;;;;;;;17.10;11.17;;;;;;;17.77;67.84;96716.47;3540426;40;20848;-72
2021/07/23 06:28:54;;;;;;;21.70;11.80;;;;;;;17.94;67.38;96717.53;3541063;40;20436;-72
2021/07/23 06:31:21;;;;;;;21.03;11.60;;;;;;;18.44;66.89;96718.03;3535838;40;20757;-72
2021/07/23 06:33:51;;;;;;;20.83;12.40;;;;;;;18.34;66.82;96715.47;3537000;40;20868;-73
2021/07/23 06:36:19;;;;;;;24.43;11.20;;;;;;;18.63;66.15;96711.75;3538334;40;20478;-72
2021/07/23 06:38:47;;;;;;;18.03;10.60;;;;;;;18.93;65.25;96707.84;3541227;40;20884;-73
2021/07/23 06:41:14;;;;;;;26.60;16.53;;;;;;;18.96;65.14;96710.22;3535718;40;20833;-72
2021/07/23 06:43:42;;;;;;;18.40;11.00;;;;;;;19.21;63.89;96692.63;3535113;40;20447;-74
2021/07/23 06:46:10;;;;;;;23.23;9.83;;;;;;;19.51;63.51;96711.72;3538132;40;20551;-73
2021/07/23 06:48:38;;;;;;;16.40;9.17;;;;;;;19.95;61.92;96709.75;3539878;40;20865;-72
2021/07/23 06:51:07;;;;;;;16.53;10.40;;;;;;;20.35;60.67;96710.84;3539335;40;20559;-72
2021/07/23 06:53:35;;;;;;;32.17;10.03;;;;;;;20.23;60.64;96711.28;3539374;40;20478;-72
2021/07/23 06:56:04;;;;;;;30.37;10.67;;;;;;;19.91;60.92;96713.69;3536683;40;20994;-73
2021/07/23 06:58:32;;;;;;;31.23;11.40;;;;;;;19.45;62.42;96718.47;3537426;40;20487;-71
2021/07/23 07:01:06;;;;;;;31.80;9.87;;;;;;;20.23;60.65;96711.28;3537589;40;20811;-73
2021/07/23 07:03:35;;;;;;;27.13;9.77;;;;;;;20.65;59.78;96711.22;3537624;40;20492;-70
2021/07/23 07:06:04;;;;;;;24.67;9.47;;;;;;;21.24;58.74;96705.69;3537409;40;21092;-72
2021/07/23 07:08:33;;;;;;;30.07;9.57;;;;;;;21.58;56.98;96707.31;3538830;40;20460;-73
2021/07/23 07:11:02;;;;;;;42.17;11.00;;;;;;;21.23;58.23;96711.16;3535798;40;21127;-73
2021/07/23 07:13:30;;;;;;;48.33;11.83;;;;;;;21.36;57.64;96706.16;3538616;40;20840;-72
2021/07/23 07:15:59;;;;;;;67.50;13.20;;;;;;;21.52;57.24;96711.47;3538072;40;20568;-72
2021/07/23 07:18:27;;;;;;;54.67;11.90;;;;;;;22.00;56.38;96706.09;3539055;40;20518;-73
2021/07/23 07:20:55;;;;;;;41.03;10.53;;;;;;;21.79;56.22;96705.88;3538854;40;20748;-73
2021/07/23 07:23:22;;;;;;;46.57;9.70;;;;;;;21.82;57.11;96703.69;3538354;40;20449;-73
2021/07/23 07:25:52;;;;;;;21.50;9.90;;;;;;;22.40;55.92;96701.56;3537695;40;20597;-72
2021/07/23 07:28:19;;;;;;;31.60;11.40;;;;;;;22.72;52.79;96694.34;3540944;40;20462;-72
2021/07/23 07:30:58;;;;;;;41.73;11.40;;;;;;;22.26;53.99;96699.66;3537121;40;20718;-72
2021/07/23 07:33:28;;;;;;;42.73;11.63;;;;;;;22.48;53.71;96698.00;3536721;40;20453;-73
2021/07/23 07:35:56;;;;;;;53.17;14.27;;;;;;;22.60;52.65;96698.41;3537031;40;20456;-73
2021/07/23 07:38:24;;;;;;;37.70;10.10;;;;;;;22.60;53.49;96691.25;3537161;40;20909;-73
2021/07/23 07:40:53;;;;;;;15.90;9.93;;;;;;;21.89;54.13;96696.69;3540603;40;20492;-73
2021/07/23 07:43:21;;;;;;;23.80;10.40;;;;;;;22.22;54.05;96699.13;3536717;40;20809;-73
2021/07/23 07:45:53;;;;;;;24.43;9.87;;;;;;;22.94;51.83;96689.16;3536978;40;20490;-74
2021/07/23 07:48:21;;;;;;;16.63;9.37;;;;;;;23.02;52.34;96695.25;3535573;40;20425;-72
2021/07/23 07:50:49;;;;;;;12.87;8.70;;;;;;;23.84;52.46;96688.22;3538029;40;20730;-74
2021/07/23 07:53:17;;;;;;;13.13;8.97;;;;;;;24.15;51.22;96690.66;3537413;40;20541;-72
2021/07/23 07:55:45;;;;;;;14.30;8.97;;;;;;;24.03;49.92;96689.44;3536814;40;20508;-74
2021/07/23 07:58:14;;;;;;;15.80;8.60;;;;;;;23.72;49.78;96687.84;3536290;40;20984;-73
2021/07/23 08:00:43;;;;;;;15.33;8.80;;;;;;;24.10;50.32;96681.53;3536224;40;20472;-73
2021/07/23 08:03:11;;;;;;;13.20;8.93;;;;;;;24.17;48.92;96685.94;3539324;40;20429;-73
2021/07/23 08:05:39;;;;;;;14.93;10.00;;;;;;;24.34;48.70;96678.47;3538305;40;21135;-74
2021/07/23 08:08:09;;;;;;;17.13;8.50;;;;;;;24.71;46.55;96675.78;3539253;40;20546;-73
2021/07/23 08:10:45;;;;;;;14.17;8.50;;;;;;;24.96;46.72;96679.69;3537536;40;20460;-73
2021/07/23 08:13:14;;;;;;;20.13;13.10;;;;;;;24.99;48.18;96676.63;3537652;40;20825;-72
2021/07/23 08:15:44;;;;;;;127.50;70.30;;;;;;;25.57;45.39;96678.28;3537146;40;20464;-72
2021/07/23 08:18:15;;;;;;;18.43;12.53;;;;;;;25.58;45.79;96671.88;3547046;40;20955;-73
2021/07/23 08:20:43;;;;;;;21.47;10.63;;;;;;;26.06;45.66;96676.44;3537799;40;20853;-74
2021/07/23 08:23:11;;;;;;;22.27;9.60;;;;;;;25.70;46.34;96669.44;3537863;40;20729;-74
2021/07/23 08:25:39;;;;;;;14.03;9.47;;;;;;;26.46;44.22;96666.63;3540619;40;20857;-73
2021/07/23 08:28:07;;;;;;;23.83;9.20;;;;;;;25.26;46.36;96660.75;3539902;40;20550;-74
2021/07/23 08:30:36;;;;;;;29.87;9.30;;;;;;;25.85;46.62;96665.63;3539823;40;20478;-73
2021/07/23 08:33:04;;;;;;;25.60;10.07;;;;;;;25.42;46.33;96665.81;3540023;40;20463;-75
2021/07/23 08:35:32;;;;;;;15.13;9.47;;;;;;;25.54;46.30;96666.09;3540625;40;20577;-73
2021/07/23 08:38:00;;;;;;;20.87;8.80;;;;;;;26.32;45.50;96660.41;3547320;40;20778;-73
2021/07/23 08:40:28;;;;;;;15.90;9.17;;;;;;;26.13;44.83;96661.19;3540609;40;20480;-75
2021/07/23 08:42:56;;;;;;;12.70;9.07;;;;;;;26.40;46.08;96654.88;3538679;40;20907;-74
2021/07/23 08:45:24;;;;;;;37.60;9.60;;;;;;;26.83;44.23;96653.66;3537301;40;20525;-74
2021/07/23 08:47:53;;;;;;;21.03;8.70;;;;;;;26.33;45.46;96666.63;3539463;40;20435;-73
2021/07/23 08:50:23;;;;;;;22.80;8.93;;;;;;;27.13;43.13;96658.59;3535678;40;21168;-74
2021/07/23 08:52:54;;;;;;;17.63;9.53;;;;;;;27.12;41.86;96656.97;3539695;40;20687;-73
2021/07/23 08:55:23;;;;;;;28.17;9.57;;;;;;;27.66;42.26;96663.06;3538744;40;20777;-73
2021/07/23 08:57:52;;;;;;;15.20;9.03;;;;;;;27.52;42.31;96654.22;3536881;40;20462;-75
2021/07/23 09:00:22;;;;;;;113.20;14.70;;;;;;;27.41;41.92;96656.53;3538280;40;20464;-74
2021/07/23 09:02:58;;;;;;;51.50;10.90;;;;;;;27.59;40.13;96655.84;3538895;40;20532;-73
2021/07/23 09:05:27;;;;;;;20.50;8.37;;;;;;;26.63;43.74;96657.16;3540202;40;20480;-72
2021/07/23 09:07:59;;;;;;;14.87;8.47;;;;;;;27.67;41.37;96654.78;3539011;40;20528;-73
2021/07/23 09:10:27;;;;;;;12.33;8.20;;;;;;;25.20;43.56;96656.16;3538684;40;20975;-73
2021/07/23 09:13:00;;;;;;;13.90;8.40;;;;;;;25.81;42.40;96664.34;3540203;40;20821;-74
2021/07/23 09:15:30;;;;;;;19.73;9.40;;;;;;;25.99;43.73;96660.31;3538586;40;20574;-72
2021/07/23 09:17:59;;;;;;;12.13;8.27;;;;;;;26.77;42.37;96658.00;3541422;40;20696;-73
2021/07/23 09:20:29;;;;;;;14.13;8.83;;;;;;;26.99;40.89;96644.34;3538101;40;20574;-73
2021/07/23 09:22:59;;;;;;;16.50;8.60;;;;;;;28.06;40.36;96655.69;3541898;40;20759;-73
2021/07/23 09:25:45;;;;;;;13.13;8.70;;;;;;;27.85;41.23;96648.72;3538208;40;20539;-74
2021/07/23 09:28:32;;;;;;;13.13;9.67;;;;;;;28.37;40.44;96643.31;3537061;40;20441;-72
2021/07/23 09:31:02;;;;;;;49.57;31.60;;;;;;;28.25;39.65;96642.34;3537629;40;20500;-73
2021/07/23 09:33:34;;;;;;;13.73;9.27;;;;;;;26.01;42.96;96648.38;3537803;40;20542;-74
2021/07/23 09:36:04;;;;;;;32.30;9.27;;;;;;;25.40;42.51;96649.13;3536442;40;20464;-73
2021/07/23 09:38:37;;;;;;;51.30;9.80;;;;;;;26.32;40.96;96646.16;3538070;40;20440;-73
2021/07/23 09:41:08;;;;;;;29.57;10.03;;;;;;;24.55;45.47;96642.91;3538159;40;20491;-73
2021/07/23 09:43:38;;;;;;;14.10;8.60;;;;;;;26.36;43.45;96640.19;3539674;40;20452;-73
2021/07/23 09:46:27;;;;;;;56.73;11.63;;;;;;;28.33;40.92;96629.44;3539170;40;20501;-73
2021/07/23 09:49:00;;;;;;;23.53;8.33;;;;;;;28.87;38.56;96627.19;3538186;40;20861;-73
2021/07/23 09:51:28;;;;;;;18.50;9.57;;;;;;;27.49;39.28;96635.84;3537895;40;20830;-73
2021/07/23 09:53:58;;;;;;;14.97;8.90;;;;;;;28.92;37.76;96632.75;3538601;40;20558;-73
2021/07/23 09:56:26;;;;;;;22.93;9.40;;;;;;;27.65;39.26;96629.16;3540333;40;20866;-73
2021/07/23 09:59:01;;;;;;;22.83;9.80;;;;;;;26.48;39.71;96626.97;3538079;40;20884;-73
2021/07/23 10:01:37;;;;;;;17.67;8.70;;;;;;;26.99;39.43;96626.41;3536112;40;20455;-74
2021/07/23 10:04:10;;;;;;;13.13;8.60;;;;;;;28.65;39.00;96613.28;3537551;40;20557;-73
2021/07/23 10:06:49;;;;;;;14.27;8.30;;;;;;;29.51;36.30;96618.94;3540217;40;20775;-73
2021/07/23 10:09:23;;;;;;;14.23;8.27;;;;;;;30.12;35.33;96617.97;3536182;40;20458;-73
2021/07/23 10:11:51;;;;;;;18.33;8.80;;;;;;;25.53;42.61;96623.41;3538215;40;20872;-73
2021/07/23 10:14:23;;;;;;;19.23;9.47;;;;;;;24.60;45.59;96615.53;3537774;40;20468;-73
2021/07/23 10:16:52;;;;;;;14.07;9.10;;;;;;;26.42;41.81;96607.16;3540256;40;20440;-71
2021/07/23 10:19:23;;;;;;;16.77;8.60;;;;;;;26.18;41.12;96608.56;3539918;40;20445;-73
2021/07/23 10:21:55;;;;;;;18.33;11.80;;;;;;;27.98;38.74;96607.50;3539643;40;20859;-72
2021/07/23 10:24:23;;;;;;;59.13;38.43;;;;;;;28.28;37.12;96604.22;3539441;40;20467;-73
2021/07/23 10:26:52;;;;;;;15.17;10.23;;;;;;;27.66;37.66;96602.06;3536762;40;20912;-73
2021/07/23 10:29:45;;;;;;;16.27;9.40;;;;;;;29.18;35.67;96595.84;3537586;40;20455;-73
2021/07/23 10:32:31;;;;;;;14.70;8.80;;;;;;;30.80;33.62;96588.09;3538594;40;20926;-74
2021/07/23 10:35:02;;;;;;;14.20;9.10;;;;;;;30.70;32.82;96583.25;3540984;40;20535;-74
2021/07/23 10:37:52;;;;;;;13.50;8.97;;;;;;;31.62;31.57;96579.94;3540593;40;20468;-75
2021/07/23 10:40:21;;;;;;;13.63;8.80;;;;;;;31.99;33.31;96571.44;3533586;40;20457;-74
2021/07/23 10:42:50;;;;;;;15.63;9.00;;;;;;;27.75;36.90;96579.22;3539283;40;20860;-75
2021/07/23 10:45:20;;;;;;;26.90;9.20;;;;;;;27.51;37.08;96585.34;3538769;40;20598;-73
2021/07/23 10:47:49;;;;;;;19.60;9.73;;;;;;;27.47;39.06;96581.44;3540606;40;20539;-73
2021/07/23 10:50:49;;;;;;;15.87;9.37;;;;;;;28.29;38.48;96577.09;3537731;40;20585;-74
2021/07/23 10:53:36;;;;;;;16.70;9.23;;;;;;;27.39;38.21;96569.88;3537352;40;20647;-75
2021/07/23 10:56:04;;;;;;;31.97;20.97;;;;;;;28.50;37.53;96570.50;3539721;40;20462;-75
2021/07/23 10:58:34;;;;;;;16.70;9.67;;;;;;;26.08;40.95;96573.25;3542439;40;20760;-73
2021/07/23 11:01:04;;;;;;;13.20;8.70;;;;;;;26.74;40.67;96566.31;3538442;40;20476;-75
2021/07/23 11:03:51;;;;;;;17.93;9.47;;;;;;;29.47;36.26;96561.09;3537383;40;20460;-73
2021/07/23 11:06:21;;;;;;;15.53;8.70;;;;;;;30.13;34.75;96564.81;3537027;40;20758;-74
2021/07/23 11:08:53;;;;;;;13.33;8.80;;;;;;;27.39;38.58;96553.75;3536876;40;20900;-75
2021/07/23 11:11:25;;;;;;;17.20;9.07;;;;;;;28.51;36.14;96537.19;3539682;40;20570;-75
2021/07/23 11:13:54;;;;;;;13.30;9.27;;;;;;;29.71;35.19;96543.97;3539307;40;20925;-73
2021/07/23 11:16:26;;;;;;;11.90;9.10;;;;;;;29.37;35.54;96540.88;3538463;40;20487;-74
2021/07/23 11:18:56;;;;;;;15.60;8.70;;;;;;;29.04;37.81;96537.72;3540969;40;20853;-73
2021/07/23 11:21:34;;;;;;;15.40;9.33;;;;;;;29.82;36.20;96533.50;3543054;40;20570;-74
2021/07/23 11:24:02;;;;;;;16.83;9.27;;;;;;;30.41;35.94;96526.38;3539211;40;21072;-73
2021/07/23 11:26:31;;;;;;;18.00;9.00;;;;;;;28.83;38.31;96526.31;3539609;40;20463;-74
2021/07/23 11:28:59;;;;;;;13.90;9.07;;;;;;;28.18;38.77;96515.88;3536196;40;20451;-73
2021/07/23 11:31:32;;;;;;;14.33;9.20;;;;;;;29.82;35.92;96517.31;3538064;40;20459;-73